Time;durP1;ratioP1;P1;durP2;ratioP2;P2;SDS_P1;SDS_P2;PMS_P1;PMS_P2;Temp;Humidity;BMP_temperature;BMP_pressure;BME280_temperature;BME280_humidity;BME280_pressure;Samples;Min_cycle;Max_cycle;Signal;HPM_P1;HPM_P2
2021/12/22 00:01:00;;;;;;;1.67;0.73;;;-4.40;99.90;;;;;;5080959;28;20384;-55
2021/12/22 00:03:26;;;;;;;1.77;0.80;;;-4.40;99.90;;;;;;5081859;28;20400;-54
2021/12/22 00:05:52;;;;;;;2.17;0.60;;;-4.40;99.90;;;;;;5082014;28;20051;-54
2021/12/22 00:08:18;;;;;;;4.50;0.90;;;-4.40;99.90;;;;;;5082096;28;20097;-51
2021/12/22 00:10:45;;;;;;;1.30;0.70;;;-4.50;99.90;;;;;;5080567;28;20035;-50
2021/12/22 00:13:11;;;;;;;1.80;1.00;;;-4.50;99.90;;;;;;5080888;28;20043;-55
2021/12/22 00:15:37;;;;;;;1.15;0.60;;;-4.50;99.90;;;;;;5082420;28;20040;-57
2021/12/22 00:18:03;;;;;;;1.92;0.75;;;-4.50;99.90;;;;;;5071279;28;20047;-50
2021/12/22 00:20:29;;;;;;;1.60;0.60;;;-4.50;99.90;;;;;;5067396;28;20033;-56
2021/12/22 00:22:55;;;;;;;1.15;0.57;;;-4.50;99.90;;;;;;5067846;28;20036;-53
2021/12/22 00:25:24;;;;;;;2.17;0.70;;;-4.50;99.90;;;;;;5069313;28;20055;-56
2021/12/22 00:27:51;;;;;;;3.63;0.68;;;-4.50;99.90;;;;;;5068542;28;20084;-50
2021/12/22 00:30:17;;;;;;;1.55;0.75;;;-4.50;99.90;;;;;;5067247;28;20037;-50
2021/12/22 00:32:50;;;;;;;4.40;0.70;;;-4.50;99.90;;;;;;5065937;28;20047;-54
2021/12/22 00:35:15;;;;;;;1.45;0.80;;;-4.50;99.90;;;;;;5069186;28;20066;-55
2021/12/22 00:37:41;;;;;;;1.20;0.70;;;-4.50;99.90;;;;;;5068677;28;20133;-55
2021/12/22 00:40:07;;;;;;;2.58;0.80;;;-4.60;99.90;;;;;;5068201;28;20075;-54
2021/12/22 00:42:33;;;;;;;5.15;0.80;;;-4.50;99.90;;;;;;5066361;28;20047;-53
2021/12/22 00:44:58;;;;;;;5.25;0.70;;;-4.50;99.90;;;;;;5069125;28;20028;-53
2021/12/22 00:47:27;;;;;;;2.53;0.80;;;-4.50;99.90;;;;;;5066908;28;20530;-55
2021/12/22 00:49:54;;;;;;;2.78;1.10;;;-4.50;99.90;;;;;;5067877;28;20041;-54
2021/12/22 00:52:20;;;;;;;5.55;0.90;;;-4.50;99.90;;;;;;5064196;28;20127;-55
2021/12/22 00:54:46;;;;;;;2.50;0.90;;;-4.50;99.90;;;;;;5065951;28;20174;-55
2021/12/22 00:57:14;;;;;;;1.83;0.90;;;-4.60;99.90;;;;;;5068448;28;20052;-55
2021/12/22 00:59:40;;;;;;;4.57;0.95;;;-4.60;99.90;;;;;;5069106;28;20059;-57
2021/12/22 01:02:09;;;;;;;3.33;0.80;;;-4.60;99.90;;;;;;5064208;28;20468;-52
2021/12/22 01:04:35;;;;;;;3.05;0.82;;;-4.60;99.90;;;;;;5068225;28;20329;-51
2021/12/22 01:07:01;;;;;;;1.88;0.80;;;-4.60;99.90;;;;;;5067519;28;20040;-55
2021/12/22 01:09:27;;;;;;;5.15;0.77;;;-4.60;99.90;;;;;;5059188;28;20041;-54
2021/12/22 01:11:52;;;;;;;1.52;0.60;;;-4.70;99.90;;;;;;5063240;28;20041;-52
2021/12/22 01:14:18;;;;;;;0.65;0.45;;;-4.70;99.90;;;;;;5068451;28;20397;-53
2021/12/22 01:16:47;;;;;;;4.13;0.90;;;-4.70;99.90;;;;;;5066150;28;20039;-50
2021/12/22 01:19:18;;;;;;;2.58;0.93;;;-4.70;99.90;;;;;;5060282;28;20064;-50
2021/12/22 01:21:52;;;;;;;2.10;0.88;;;-4.70;99.90;;;;;;5064598;28;20126;-51
2021/12/22 01:24:28;;;;;;;6.18;2.67;;;-4.70;99.90;;;;;;5060846;28;20041;-57
2021/12/22 01:27:03;;;;;;;1.98;0.80;;;-4.70;99.90;;;;;;5064548;28;20213;-50
2021/12/22 01:29:33;;;;;;;2.28;0.63;;;-4.70;99.90;;;;;;5065995;28;20032;-50
2021/12/22 01:31:58;;;;;;;0.88;0.52;;;-4.70;99.90;;;;;;5065544;28;20121;-53
2021/12/22 01:34:25;;;;;;;1.75;0.52;;;-4.70;99.90;;;;;;5067930;28;20044;-53
2021/12/22 01:36:51;;;;;;;2.10;0.88;;;-4.70;99.90;;;;;;5067009;28;20040;-48
2021/12/22 01:39:17;;;;;;;2.33;0.75;;;-4.70;99.90;;;;;;5066925;28;20025;-50
2021/12/22 01:41:42;;;;;;;2.00;0.60;;;-4.70;99.90;;;;;;5063137;28;20123;-53
2021/12/22 01:44:10;;;;;;;1.38;0.40;;;-4.70;99.90;;;;;;5063876;28;20043;-54
2021/12/22 01:49:10;;;;;;;2.03;0.73;;;-4.70;99.90;;;;;;5066626;28;20170;-51
2021/12/22 01:51:38;;;;;;;1.02;0.47;;;-4.80;99.90;;;;;;5065658;28;20036;-54
2021/12/22 01:54:30;;;;;;;0.35;0.32;;;-4.80;99.90;;;;;;5066526;28;20029;-54
2021/12/22 01:57:01;;;;;;;0.63;0.50;;;;;;;;;;5056913;28;20646;-51
2021/12/22 01:59:28;;;;;;;2.33;0.70;;;;;;;;;;5066402;28;20044;-52
2021/12/22 02:01:54;;;;;;;1.65;0.55;;;;;;;;;;5063461;28;20079;-52
2021/12/22 02:04:20;;;;;;;6.07;0.80;;;;;;;;;;5064789;28;20127;-50
2021/12/22 02:06:47;;;;;;;4.32;0.95;;;;;;;;;;5062226;28;20106;-50
2021/12/22 02:09:21;;;;;;;1.05;0.50;;;;;;;;;;5063198;28;20032;-53
2021/12/22 02:11:47;;;;;;;2.53;0.68;;;;;;;;;;5063740;28;20100;-52
2021/12/22 02:14:13;;;;;;;2.90;0.40;;;;;;;;;;5063357;28;20033;-57
2021/12/22 02:16:40;;;;;;;2.58;0.75;;;;;;;;;;5062360;28;20637;-56
2021/12/22 02:19:08;;;;;;;1.48;0.60;;;;;;;;;;5062139;28;20044;-53
2021/12/22 02:21:40;;;;;;;6.95;0.93;;;;;;;;;;5063025;28;20044;-56
2021/12/22 02:24:06;;;;;;;2.42;0.70;;;;;;;;;;5066423;28;20032;-54
2021/12/22 02:26:38;;;;;;;1.70;0.60;;;;;;;;;;5066509;28;20048;-54
2021/12/22 02:29:16;;;;;;;2.63;0.90;;;;;;;;;;5065005;28;20408;-54
2021/12/22 02:31:46;;;;;;;3.30;2.03;;;;;;;;;;5062775;28;20181;-51
2021/12/22 02:34:16;;;;;;;0.95;0.60;;;;;;;;;;5058615;28;20048;-54
2021/12/22 02:36:45;;;;;;;1.23;0.70;;;;;;;;;;5062932;28;20063;-52
2021/12/22 02:39:12;;;;;;;1.13;0.57;;;;;;;;;;5061291;28;20068;-54
2021/12/22 02:41:38;;;;;;;7.68;0.68;;;;;;;;;;5060579;28;20047;-53
2021/12/22 02:44:07;;;;;;;1.08;0.52;;;;;;;;;;5062003;28;20028;-53
2021/12/22 02:46:34;;;;;;;4.57;0.95;;;;;;;;;;5067956;28;20131;-53
2021/12/22 02:49:01;;;;;;;2.88;0.73;;;;;;;;;;5073764;28;20032;-51
2021/12/22 02:51:28;;;;;;;2.75;0.60;;;;;;;;;;5072898;28;20063;-52
2021/12/22 02:54:19;;;;;;;2.58;0.50;;;;;;;;;;5077739;28;20051;-54
2021/12/22 02:59:32;;;;;;;1.30;0.52;;;;;;;;;;5077218;28;20032;-51
2021/12/22 03:04:45;;;;;;;0.57;0.50;;;;;;;;;;5051614;28;19921;-50
2021/12/22 03:07:15;;;;;;;1.00;0.57;;;;;;;;;;5048588;28;20047;-51
2021/12/22 03:09:41;;;;;;;2.05;0.80;;;;;;;;;;5037565;28;20038;-50
2021/12/22 03:12:09;;;;;;;3.25;0.65;;;;;;;;;;5031907;28;20037;-55
2021/12/22 03:14:35;;;;;;;1.02;0.40;;;;;;;;;;5041632;28;20057;-55
2021/12/22 03:17:02;;;;;;;1.27;0.43;;;;;;;;;;5039741;28;20072;-53
2021/12/22 03:19:32;;;;;;;0.90;0.50;;;;;;;;;;5050924;28;20813;-54
2021/12/22 03:22:02;;;;;;;1.77;0.50;;;;;;;;;;5039619;28;20147;-54
2021/12/22 03:24:29;;;;;;;4.85;1.17;;;;;;;;;;5051523;28;20072;-55
2021/12/22 03:26:55;;;;;;;1.38;0.60;;;;;;;;;;5042586;28;20041;-54
2021/12/22 03:29:21;;;;;;;3.10;0.52;;;;;;;;;;5051916;28;20052;-53
2021/12/22 03:31:47;;;;;;;0.70;0.50;;;;;;;;;;5040736;28;20033;-53
2021/12/22 03:34:14;;;;;;;1.88;0.43;;;;;;;;;;5052491;28;20116;-50
2021/12/22 03:36:42;;;;;;;2.47;0.60;;;;;;;;;;5042568;28;20569;-51
2021/12/22 03:39:08;;;;;;;1.10;0.50;;;;;;;;;;5042651;28;20112;-50
2021/12/22 03:41:37;;;;;;;1.05;0.40;;;;;;;;;;5033476;28;20069;-50
2021/12/22 03:44:04;;;;;;;0.32;0.30;;;;;;;;;;5048585;28;20129;-51
2021/12/22 03:46:30;;;;;;;1.38;0.45;;;;;;;;;;5042018;28;20053;-52
2021/12/22 03:48:58;;;;;;;0.60;0.30;;;;;;;;;;5049858;28;20044;-49
2021/12/22 03:51:24;;;;;;;0.95;0.47;;;;;;;;;;5038279;28;20497;-50
2021/12/22 03:53:50;;;;;;;0.95;0.40;;;;;;;;;;5051179;28;20072;-52
2021/12/22 03:56:16;;;;;;;1.58;0.40;;;;;;;;;;5042915;28;20056;-55
2021/12/22 03:58:42;;;;;;;0.52;0.30;;;;;;;;;;5045040;28;20421;-53
2021/12/22 04:01:08;;;;;;;0.70;0.40;;;;;;;;;;5030050;28;20040;-52
2021/12/22 04:03:36;;;;;;;1.73;0.40;;;;;;;;;;5044862;28;20036;-53
2021/12/22 04:06:02;;;;;;;5.50;0.30;;;;;;;;;;5044595;28;20044;-54
2021/12/22 04:08:29;;;;;;;1.17;0.40;;;;;;;;;;5044665;28;20041;-53
2021/12/22 04:10:55;;;;;;;0.68;0.30;;;;;;;;;;5046252;28;20091;-51
2021/12/22 04:13:21;;;;;;;1.25;0.32;;;;;;;;;;5048512;28;20040;-49
2021/12/22 04:15:47;;;;;;;1.05;0.40;;;;;;;;;;5047982;28;20041;-50
2021/12/22 04:18:13;;;;;;;1.33;0.50;;;;;;;;;;5048063;28;20504;-51
2021/12/22 04:20:40;;;;;;;1.48;0.40;;;;;;;;;;5048234;28;20041;-54
2021/12/22 04:23:06;;;;;;;3.15;0.55;;;;;;;;;;5047726;28;20367;-50
2021/12/22 04:25:32;;;;;;;0.57;0.30;;;;;;;;;;5046344;28;20058;-50
2021/12/22 04:28:05;;;;;;;1.75;0.47;;;;;;;;;;5048440;28;20056;-54
2021/12/22 04:30:33;;;;;;;2.67;0.57;;;;;;;;;;5046446;28;20057;-54
2021/12/22 04:32:59;;;;;;;1.05;0.35;;;;;;;;;;5045565;28;20033;-49
2021/12/22 04:35:25;;;;;;;2.28;0.60;;;;;;;;;;5038412;28;20464;-48
2021/12/22 04:37:51;;;;;;;2.95;0.60;;;;;;;;;;5046033;28;20079;-56
2021/12/22 04:40:18;;;;;;;2.08;0.50;;;;;;;;;;5047134;28;20044;-56
2021/12/22 04:42:44;;;;;;;1.10;0.40;;;;;;;;;;5048149;28;20536;-53
2021/12/22 04:45:10;;;;;;;0.40;0.30;;;;;;;;;;5049319;28;20041;-49
2021/12/22 04:47:37;;;;;;;1.13;0.60;;;;;;;;;;5047650;28;20053;-53
2021/12/22 04:50:13;;;;;;;0.90;0.40;;;;;;;;;;5048277;28;20040;-57
2021/12/22 04:52:59;;;;;;;1.52;0.52;;;;;;;;;;5038939;28;20120;-57
2021/12/22 04:55:26;;;;;;;1.37;0.73;;;;;;;;;;5037240;28;20045;-56
2021/12/22 04:57:53;;;;;;;0.38;0.38;;;;;;;;;;5041594;28;20417;-56
2021/12/22 05:00:20;;;;;;;1.88;0.52;;;;;;;;;;5048195;28;20048;-57
2021/12/22 05:02:46;;;;;;;2.85;0.50;;;;;;;;;;5076637;28;20539;-57
2021/12/22 05:05:12;;;;;;;2.05;0.88;;;;;;;;;;5084256;28;20789;-57
2021/12/22 05:07:38;;;;;;;7.35;0.90;;;;;;;;;;5071899;28;20078;-56
2021/12/22 05:10:05;;;;;;;0.65;0.40;;;;;;;;;;5084872;28;20044;-56
2021/12/22 05:12:31;;;;;;;1.77;0.60;;;;;;;;;;5076453;28;20067;-51
2021/12/22 05:14:57;;;;;;;1.33;0.50;;;;;;;;;;5086133;28;20770;-55
2021/12/22 05:17:49;;;;;;;1.05;0.50;;;;;;;;;;5080805;28;20052;-54
2021/12/22 05:20:10;;;;;;;6.75;0.75;;;;;;;;;;5077511;28;20036;-52
2021/12/22 05:22:36;;;;;;;4.35;1.00;;;;;;;;;;5075210;28;20105;-50
2021/12/22 05:25:03;;;;;;;2.17;0.55;;;;;;;;;;5083604;28;20045;-59
2021/12/22 05:27:30;;;;;;;4.97;0.70;;;;;;;;;;5078535;28;20079;-55
2021/12/22 05:29:56;;;;;;;1.42;0.60;;;;;;;;;;5072733;28;20041;-56
2021/12/22 05:32:26;;;;;;;1.15;0.50;;;;;;;;;;5043854;28;20098;-53
2021/12/22 05:34:52;;;;;;;1.60;0.73;;;;;;;;;;5042920;28;20124;-55
2021/12/22 05:37:18;;;;;;;1.58;0.55;;;;;;;;;;5045473;28;20116;-57
2021/12/22 05:39:45;;;;;;;3.60;0.57;;;;;;;;;;5041876;28;20036;-58
2021/12/22 05:42:11;;;;;;;2.72;0.70;;;;;;;;;;5046162;28;20138;-58
2021/12/22 05:44:37;;;;;;;1.65;0.73;;;;;;;;;;5046698;28;20493;-52
2021/12/22 05:47:03;;;;;;;3.30;0.95;;;;;;;;;;5046594;28;20059;-58
2021/12/22 05:49:29;;;;;;;5.30;1.10;;;;;;;;;;5046938;28;20493;-58
2021/12/22 05:51:55;;;;;;;2.22;1.35;;;;;;;;;;5047057;28;20072;-59
2021/12/22 05:54:21;;;;;;;2.67;0.68;;;;;;;;;;5046847;28;20045;-54
2021/12/22 05:56:47;;;;;;;1.05;0.70;;;;;;;;;;5046322;28;20557;-56
2021/12/22 05:59:13;;;;;;;5.68;0.90;;;;;;;;;;5046399;28;20086;-57
2021/12/22 06:01:39;;;;;;;10.50;1.45;;;;;;;;;;5043306;28;20726;-52
2021/12/22 06:04:06;;;;;;;1.42;0.75;;;;;;;;;;5047198;28;20052;-61
2021/12/22 06:06:33;;;;;;;1.33;0.60;;;;;;;;;;5045893;28;20055;-55
2021/12/22 06:08:59;;;;;;;1.70;0.50;;;;;;;;;;5046389;28;20179;-55
2021/12/22 06:11:25;;;;;;;2.55;0.75;;;;;;;;;;5044197;28;20120;-55
2021/12/22 06:13:51;;;;;;;1.95;0.75;;;;;;;;;;5043273;28;20059;-58
2021/12/22 06:16:17;;;;;;;3.38;0.85;;;;;;;;;;5043434;28;20044;-58
2021/12/22 06:18:45;;;;;;;2.33;0.80;;;;;;;;;;5045638;28;20038;-57
2021/12/22 06:21:14;;;;;;;2.50;1.10;;;;;;;;;;5040521;28;20043;-55
2021/12/22 06:23:40;;;;;;;5.82;1.10;;;;;;;;;;5041901;28;20041;-56
2021/12/22 06:26:06;;;;;;;4.47;1.00;;;;;;;;;;5046923;28;20044;-58
2021/12/22 06:28:33;;;;;;;2.30;1.10;;;;;;;;;;5045270;28;20149;-58
2021/12/22 06:30:59;;;;;;;3.58;1.38;;;;;;;;;;5043834;28;20035;-54
2021/12/22 06:33:25;;;;;;;4.28;1.17;;;;;;;;;;5045769;28;20115;-59
2021/12/22 06:35:51;;;;;;;2.70;1.00;;;;;;;;;;5046139;28;20048;-56
2021/12/22 06:38:17;;;;;;;4.63;0.70;;;;;;;;;;5046133;28;20108;-59
2021/12/22 06:40:43;;;;;;;5.55;1.30;;;;;;;;;;5044430;28;20298;-53
2021/12/22 06:43:10;;;;;;;2.88;1.00;;;;;;;;;;5040053;28;20529;-57
2021/12/22 06:45:36;;;;;;;5.75;1.40;;;;;;;;;;5043333;28;20029;-55
2021/12/22 06:48:02;;;;;;;3.45;1.00;;;;;;;;;;5045548;28;20535;-50
2021/12/22 06:50:28;;;;;;;2.67;1.27;;;;;;;;;;5041688;28;20045;-57
2021/12/22 06:52:54;;;;;;;2.78;1.15;;;;;;;;;;5041847;28;20040;-54
2021/12/22 06:55:20;;;;;;;1.33;0.65;;;;;;;;;;5045423;28;20405;-58
2021/12/22 06:57:47;;;;;;;4.65;0.88;;;;;;;;;;5042287;28;20040;-56
2021/12/22 07:00:13;;;;;;;6.80;1.50;;;;;;;;;;5044477;28;20037;-56
2021/12/22 07:02:40;;;;;;;4.53;1.23;;;;;;;;;;5071778;28;20079;-54
2021/12/22 07:05:07;;;;;;;3.08;1.00;;;;;;;;;;5080464;28;20032;-56
2021/12/22 07:07:33;;;;;;;3.90;1.52;;;;;;;;;;5076982;28;20051;-55
2021/12/22 07:09:59;;;;;;;3.30;0.93;;;;;;;;;;5084950;28;20032;-56
2021/12/22 07:12:25;;;;;;;6.05;2.05;;;;;;;;;;5074009;28;20036;-56
2021/12/22 07:14:52;;;;;;;5.05;1.23;;;;;;;;;;5076060;28;20040;-54
2021/12/22 07:17:18;;;;;;;6.15;1.23;;;;;;;;;;5073256;28;20067;-56
2021/12/22 07:19:44;;;;;;;6.68;1.17;;;;;;;;;;5078352;28;20036;-59
2021/12/22 07:22:10;;;;;;;2.67;1.30;;;;;;;;;;5070322;28;20055;-56
2021/12/22 07:24:36;;;;;;;2.17;1.15;;;;;;;;;;5076846;28;20500;-55
2021/12/22 07:27:02;;;;;;;6.35;1.50;;;;;;;;;;5070700;28;20506;-53
2021/12/22 07:29:28;;;;;;;4.20;1.48;;;;;;;;;;5079035;28;20043;-54
2021/12/22 07:31:54;;;;;;;3.28;1.52;;;;;;;;;;5080882;28;20036;-53
2021/12/22 07:34:23;;;;;;;4.18;1.33;;;;;;;;;;5072403;28;20032;-55
2021/12/22 07:36:56;;;;;;;2.42;1.10;;;;;;;;;;5078676;28;20044;-57
2021/12/22 07:39:22;;;;;;;2.65;1.05;;;;;;;;;;5085779;28;20504;-55
2021/12/22 07:41:48;;;;;;;5.32;1.85;;;;;;;;;;5074946;28;20107;-59
2021/12/22 07:44:14;;;;;;;4.47;1.27;;;;;;;;;;5085203;28;20032;-56
2021/12/22 07:46:40;;;;;;;3.47;1.10;;;;;;;;;;5054856;28;20047;-53
2021/12/22 07:49:06;;;;;;;3.25;1.08;;;;;;;;;;5042559;28;20037;-57
2021/12/22 07:54:30;;;;;;;3.55;0.80;;;;;;;;;;5794145;23;20038;-56
2021/12/22 07:56:56;;;;;;;5.38;1.20;;;;;;;;;;4985650;28;20621;-52
2021/12/22 07:59:22;;;;;;;3.40;1.67;;;;;;;;;;4993332;28;20806;-57
2021/12/22 08:01:48;;;;;;;3.70;1.33;;;;;;;;;;5006849;28;20038;-58
2021/12/22 08:04:14;;;;;;;4.50;1.60;;;;;;;;;;5009451;28;20038;-57
2021/12/22 08:06:40;;;;;;;5.25;2.00;;;;;;;;;;5011785;28;20050;-52
2021/12/22 08:09:06;;;;;;;5.80;1.50;;;;;;;;;;5009496;28;20084;-57
2021/12/22 08:11:32;;;;;;;6.00;1.77;;;;;;;;;;5014455;28;20083;-55
2021/12/22 08:13:58;;;;;;;7.97;2.30;;;;;;;;;;5007242;28;20080;-55
2021/12/22 08:16:24;;;;;;;6.18;2.53;;;;;;;;;;5010805;28;20611;-55
2021/12/22 08:18:50;;;;;;;9.52;3.03;;;;;;;;;;5009029;28;20038;-56
2021/12/22 08:21:17;;;;;;;12.88;3.28;;;;;;;;;;5015084;28;20034;-56
2021/12/22 08:23:43;;;;;;;9.45;2.92;;;;;;;;;;5013676;28;20049;-56
2021/12/22 08:26:09;;;;;;;8.75;2.08;;;;;;;;;;5009860;28;20100;-57
2021/12/22 08:28:35;;;;;;;3.92;1.23;;;;;;;;;;5010999;28;20095;-55
2021/12/22 08:31:01;;;;;;;10.45;2.50;;;;;;;;;;5012637;28;20074;-56
2021/12/22 08:33:30;;;;;;;4.95;2.10;;;;;;;;;;5008275;28;20034;-55
2021/12/22 08:38:55;;;;;;;4.53;1.77;;;;;;;;;;5009260;28;20196;-56
2021/12/22 08:41:22;;;;;;;5.45;1.50;;;;;;;;;;5011583;28;20108;-57
2021/12/22 08:43:49;;;;;;;7.80;2.20;;;;;;;;;;5009460;28;20576;-59
2021/12/22 08:46:15;;;;;;;7.53;2.33;;;;;;;;;;5013642;28;20469;-55
2021/12/22 08:48:41;;;;;;;10.77;3.20;;;;;;;;;;5007728;28;20080;-58
2021/12/22 08:51:08;;;;;;;10.50;3.80;;;;;;;;;;5015282;28;20034;-57
2021/12/22 08:53:34;;;;;;;6.90;3.17;;;;;;;;;;5010719;28;20041;-55
2021/12/22 08:56:00;;;;;;;6.43;2.17;;;;;;;;;;5014811;28;20444;-53
2021/12/22 08:58:26;;;;;;;8.48;3.65;;;;;;;;;;5010628;28;20049;-59
2021/12/22 09:00:52;;;;;;;7.95;3.55;;;;;;;;;;5015443;28;20038;-51
2021/12/22 09:03:18;;;;;;;27.13;10.63;;;;;;;;;;5009683;28;20096;-53
2021/12/22 09:05:44;;;;;;;10.32;4.57;;;;;;;;;;5014764;28;20053;-53
2021/12/22 09:08:10;;;;;;;9.23;2.55;;;;;;;;;;5007905;28;20069;-56
2021/12/22 09:10:36;;;;;;;6.22;2.47;;;;;;;;;;5014939;28;20482;-54
2021/12/22 09:13:03;;;;;;;8.80;2.88;;;;;;;;;;5012175;28;20080;-55
2021/12/22 09:15:29;;;;;;;3.42;2.00;;;;;;;;;;5011238;28;22167;-55
2021/12/22 09:17:55;;;;;;;3.65;1.50;;;;;;;;;;5009986;28;20636;-58
2021/12/22 09:20:21;;;;;;;1.65;1.13;;;;;;;;;;5010874;28;20034;-58
2021/12/22 09:22:47;;;;;;;1.40;1.00;;;;;;;;;;4993523;28;20869;-58
2021/12/22 09:25:13;;;;;;;2.85;1.23;;;;;;;;;;5010877;28;20041;-53
2021/12/22 09:27:40;;;;;;;3.30;1.27;;;;;;;;;;5009704;28;20045;-55
2021/12/22 09:30:08;;;;;;;2.65;1.27;;;;;;;;;;5011136;28;20034;-57
2021/12/22 09:32:34;;;;;;;4.00;1.05;;;;;;;;;;5005221;28;20045;-55
2021/12/22 09:35:00;;;;;;;1.90;1.10;;;;;;;;;;4998961;28;20088;-57
2021/12/22 09:37:26;;;;;;;1.50;0.98;;;;;;;;;;5009578;28;20041;-58
2021/12/22 09:39:52;;;;;;;1.90;1.00;;;;;;;;;;5009392;28;20053;-58
2021/12/22 09:42:19;;;;;;;2.28;1.00;;;;;;;;;;5009039;28;20088;-54
2021/12/22 09:44:46;;;;;;;3.65;1.00;;;;;;;;;;5010867;28;20111;-59
2021/12/22 09:47:14;;;;;;;1.80;1.00;;;;;;;;;;5010434;28;20042;-59
2021/12/22 09:52:17;;;;;;;2.28;1.30;;;;;;;;;;5011199;28;20516;-56
2021/12/22 09:54:43;;;;;;;2.38;1.25;;;;;;;;;;5007679;28;20412;-57
2021/12/22 09:57:10;;;;;;;1.60;0.90;;;;;;;;;;5012058;28;20045;-55
2021/12/22 09:59:36;;;;;;;1.67;0.90;;;;;;;;;;5004293;28;20038;-54
2021/12/22 10:02:03;;;;;;;4.05;1.38;;;;;;;;;;5004067;28;20042;-53
2021/12/22 10:04:29;;;;;;;1.67;0.90;;;;;;;;;;5008997;28;20077;-52
2021/12/22 10:06:55;;;;;;;1.55;0.88;;;;;;;;;;5013388;28;20783;-53
2021/12/22 10:09:25;;;;;;;2.30;1.27;;;;;;;;;;4996361;28;20107;-57
2021/12/22 10:11:51;;;;;;;2.22;1.02;;;;;;;;;;5014436;28;20037;-54
2021/12/22 10:14:19;;;;;;;1.67;1.10;;;;;;;;;;4997405;28;20121;-61
2021/12/22 10:16:46;;;;;;;2.90;1.08;;;;;;;;;;5013362;28;20046;-58
2021/12/22 10:19:12;;;;;;;3.55;1.27;;;;;;;;;;5009527;28;20038;-56
2021/12/22 10:21:58;;;;;;;2.50;0.98;;;;;;;;;;5013536;28;20164;-57
2021/12/22 10:24:39;;;;;;;1.70;1.10;;;;;;;;;;5006784;28;20034;-52
2021/12/22 10:27:06;;;;;;;2.70;1.35;;;;;;;;;;5010938;28;20083;-58
2021/12/22 10:29:33;;;;;;;4.90;1.83;;;;;;;;;;5009715;28;20041;-60
2021/12/22 10:32:07;;;;;;;2.63;1.13;;;;;;;;;;5013080;28;20497;-53
2021/12/22 10:34:33;;;;;;;1.60;0.85;;;;;;;;;;5008861;28;20099;-57
2021/12/22 10:36:59;;;;;;;5.47;1.60;;;;;;;;;;5013661;28;20078;-57
2021/12/22 10:39:27;;;;;;;3.35;1.20;;;;;;;;;;5007500;28;20030;-59
2021/12/22 10:41:53;;;;;;;3.17;1.30;;;;;;;;;;5013269;28;20081;-56
2021/12/22 10:44:20;;;;;;;2.53;1.30;;;;;;;;;;5007801;28;20049;-56
2021/12/22 10:46:46;;;;;;;2.97;1.20;;;;;;;;;;5017627;28;20049;-56
2021/12/22 10:49:21;;;;;;;3.45;1.25;;;;;;;;;;5008122;28;20069;-56
2021/12/22 10:51:55;;;;;;;2.08;1.25;;;;;;;;;;5012549;28;20052;-54
2021/12/22 10:54:29;;;;;;;2.25;1.27;;;;;;;;;;5005839;28;20048;-54
2021/12/22 10:56:57;;;;;;;5.53;1.38;;;;;;;;;;5010101;28;20057;-49
2021/12/22 10:59:24;;;;;;;2.95;1.13;;;;;;;;;;5007579;28;20034;-48
2021/12/22 11:01:53;;;;;;;3.90;1.60;;;;;;;;;;5011880;28;20045;-51
2021/12/22 11:04:23;;;;;;;2.15;1.10;;;;;;;;;;5007906;28;20041;-49
2021/12/22 11:06:51;;;;;;;2.10;1.30;;;;;;;;;;5014284;28;20162;-49
2021/12/22 11:09:18;;;;;;;2.10;1.10;;;;;;;;;;5008103;28;20049;-50
2021/12/22 11:11:55;;;;;;;3.33;1.05;;;;;;;;;;5014801;28;20038;-53
2021/12/22 11:14:29;;;;;;;3.85;1.65;;;;;;;;;;5010108;28;20053;-53
2021/12/22 11:17:01;;;;;;;3.22;1.40;;;;;;;;;;5013165;28;20076;-56
2021/12/22 11:19:29;;;;;;;2.92;1.60;;;;;;;;;;5007523;28;20144;-55
2021/12/22 11:22:15;;;;;;;4.88;1.35;;;;;;;;;;5011642;28;20180;-54
2021/12/22 11:24:43;;;;;;;4.47;1.65;;;;;;;;;;5004566;28;20061;-56
2021/12/22 11:27:09;;;;;;;3.00;1.33;;;;;;;;;;5009124;28;20557;-55
2021/12/22 11:29:36;;;;;;;7.15;1.30;;;;;;;;;;5005367;28;20145;-54
2021/12/22 11:32:04;;;;;;;5.05;1.23;;;;;;;;;;5008588;28;20070;-54
2021/12/22 11:34:34;;;;;;;5.50;1.52;;;;;;;;;;5004685;28;20468;-54
2021/12/22 11:37:01;;;;;;;4.38;1.13;;;;;;;;;;5008989;28;20092;-58
2021/12/22 11:39:27;;;;;;;3.63;1.60;;;;;;;;;;5005769;28;20044;-55
2021/12/22 11:41:56;;;;;;;6.30;1.48;;;;;;;;;;5012435;28;20064;-57
2021/12/22 11:44:23;;;;;;;2.88;1.35;;;;;;;;;;5003745;28;20172;-53
2021/12/22 11:46:50;;;;;;;3.03;1.60;;;;;;;;;;5012821;28;20393;-51
2021/12/22 11:49:20;;;;;;;6.53;2.28;;;;;;;;;;5002995;28;20060;-53
2021/12/22 11:51:46;;;;;;;15.77;4.57;;;;;;;;;;5012457;28;20172;-51
2021/12/22 11:54:13;;;;;;;4.03;1.67;;;;;;;;;;5006119;28;20033;-51
2021/12/22 11:56:49;;;;;;;2.60;1.70;;;;;;;;;;5012092;28;20042;-58
2021/12/22 11:59:39;;;;;;;2.95;1.48;;;;;;;;;;5007368;28;20113;-52
2021/12/22 12:02:17;;;;;;;4.30;1.55;;;;;;;;;;4995987;28;20560;-55
2021/12/22 12:04:43;;;;;;;7.05;1.73;;;;;;;;;;5006913;28;20041;-54
2021/12/22 12:07:09;;;;;;;3.03;1.67;;;;;;;;;;5009792;28;20045;-57
2021/12/22 12:09:35;;;;;;;4.55;2.00;;;;;;;;;;5007207;28;20045;-52
2021/12/22 12:12:05;;;;;;;3.45;1.67;;;;;;;;;;5009653;28;20058;-56
2021/12/22 12:14:36;;;;;;;17.30;6.47;;;;;;;;;;5008374;28;20053;-53
2021/12/22 12:23:16;;;;;;;9.13;3.70;;;;;;;;;;5010468;28;20030;-51
2021/12/22 12:25:42;;;;;;;13.40;5.70;;;;;;;;;;5009209;28;20124;-58
2021/12/22 12:28:18;;;;;;;8.20;4.00;;;;;;;;;;5010148;28;20520;-54
2021/12/22 12:30:46;;;;;;;7.13;3.47;;;;;;;;;;5011951;28;20613;-56
2021/12/22 12:33:32;;;;;;;5.32;1.50;;;;;;;;;;5009777;28;20038;-54
2021/12/22 12:35:58;;;;;;;4.63;1.75;;;;;;;;;;5011751;28;20052;-55
2021/12/22 12:38:30;;;;;;;3.53;1.45;;;;;;;;;;5009903;28;20500;-56
2021/12/22 12:40:57;;;;;;;4.90;1.30;;;;;;;;;;5006246;28;20045;-57
2021/12/22 12:46:24;;;;;;;3.55;1.25;;;;;;;;;;5005249;28;20037;-56
2021/12/22 12:48:50;;;;;;;3.03;1.40;;;;;;;;;;5009297;28;20050;-53
2021/12/22 12:51:17;;;;;;;3.95;1.40;;;;;;;;;;5014335;28;20109;-56
2021/12/22 12:53:45;;;;;;;1.35;0.90;;;;;;;;;;5009991;28;20034;-57
2021/12/22 12:56:12;;;;;;;2.75;1.13;;;;;;;;;;5013116;28;20029;-58
2021/12/22 12:59:01;;;;;;;3.83;1.58;;;;;;;;;;5009488;28;20050;-56
2021/12/22 13:01:46;;;;;;;2.83;1.55;;;;;;;;;;5011940;28;20045;-59
2021/12/22 13:04:20;;;;;;;5.10;2.30;;;;;;;;;;5008653;28;20037;-59
2021/12/22 13:06:47;;;;;;;6.90;3.30;;;;;;;;;;5010317;28;20100;-60
2021/12/22 13:09:25;;;;;;;6.97;2.97;;;;;;;;;;5008532;28;20045;-58
2021/12/22 13:11:58;;;;;;;7.53;3.25;;;;;;;;;;5018293;28;20056;-58
2021/12/22 13:17:19;;;;;;;4.43;3.25;;;;;;;;;;5005469;28;20050;-60
2021/12/22 13:19:48;;;;;;;6.82;3.17;;;;;;;;;;5009043;28;20516;-60
2021/12/22 13:22:17;;;;;;;6.72;3.63;;;;;;;;;;5013478;28;20426;-57
2021/12/22 13:24:43;;;;;;;8.70;4.55;;;;;;;;;;5005131;28;20429;-56
2021/12/22 13:27:09;;;;;;;5.78;3.60;;;;;;;;;;5011522;28;20034;-59
2021/12/22 13:29:38;;;;;;;8.82;4.53;;;;;;;;;;5008082;28;20133;-60
2021/12/22 13:32:08;;;;;;;10.00;5.20;;;;;;;;;;5011026;28;20040;-61
2021/12/22 13:34:48;;;;;;;7.07;4.03;;;;;;;;;;5008307;28;20049;-63
2021/12/22 13:37:14;;;;;;;7.20;4.18;;;;;;;;;;5016576;28;20523;-59
2021/12/22 13:39:45;;;;;;;6.18;3.85;;;;;;;;;;5007805;28;20042;-54
2021/12/22 13:42:11;;;;;;;7.65;3.72;;;;;;;;;;5014051;28;20056;-60
2021/12/22 13:44:38;;;;;;;9.35;3.70;;;;;;;;;;5005686;28;20188;-58
2021/12/22 13:47:05;;;;;;;9.00;4.20;;;;;;;;;;5010824;28;20113;-59
2021/12/22 13:49:31;;;;;;;7.07;3.65;;;;;;;;;;5004394;28;20050;-60
2021/12/22 13:51:58;;;;;;;6.30;3.22;;;;;;;;;;5010341;28;20038;-60
2021/12/22 13:54:28;;;;;;;5.93;3.13;;;;;;;;;;5006332;28;20130;-59
2021/12/22 13:56:59;;;;;;;23.50;4.78;;;;;;;;;;5011829;28;20143;-58
2021/12/22 13:59:28;;;;;;;20.45;4.40;;;;;;;;;;5008032;28;20041;-59
2021/12/22 14:01:56;;;;;;;7.55;3.17;;;;;;;;;;5012434;28;20057;-59
2021/12/22 14:04:31;;;;;;;5.93;3.80;;;;;;;;;;5005906;28;20052;-60
2021/12/22 14:07:08;;;;;;;6.05;3.47;;;;;;;;;;5011244;28;20486;-59
2021/12/22 14:09:40;;;;;;;7.90;4.05;;;;;;;;;;4990698;28;20077;-59
2021/12/22 14:12:11;;;;;;;9.98;4.38;;;;;;;;;;5010450;28;20033;-58
2021/12/22 14:14:38;;;;;;;6.70;4.82;;;;;;;;;;4987562;28;20576;-59
2021/12/22 14:17:05;;;;;;;9.50;4.72;;;;;;;;;;5007918;28;20108;-58
2021/12/22 14:19:32;;;;;;;8.80;4.32;;;;;;;;;;5005023;28;20053;-60
2021/12/22 14:22:04;;;;;;;9.02;3.83;;;;;;;;;;4998596;28;20034;-58
2021/12/22 14:24:34;;;;;;;10.32;5.07;;;;;;;;;;5004686;28;20438;-58
2021/12/22 14:27:01;;;;;;;9.48;5.05;;;;;;;;;;5009953;28;20029;-58
2021/12/22 14:29:31;;;;;;;9.45;4.70;;;;;;;;;;5007312;28;20570;-59
2021/12/22 14:32:04;;;;;;;10.30;5.30;;;;;;;;;;5009552;28;20034;-58
2021/12/22 14:34:31;;;;;;;7.70;4.38;;;;;;;;;;5004317;28;20037;-59
2021/12/22 14:36:58;;;;;;;6.13;3.63;;;;;;;;;;5004776;28;20075;-59
2021/12/22 14:39:39;;;;;;;10.27;3.90;;;;;;;;;;5010425;28;20073;-57
2021/12/22 14:42:19;;;;;;;6.18;4.32;;;;;;;;;;5011168;28;20044;-59
2021/12/22 14:44:45;;;;;;;9.27;4.18;;;;;;;;;;5008280;28;20123;-59
2021/12/22 14:47:18;;;;;;;9.40;4.97;;;;;;;;;;5007172;28;20512;-58
2021/12/22 14:49:45;;;;;;;7.72;4.60;;;;;;;;;;5008400;28;20132;-57
2021/12/22 14:52:11;;;;;;;9.32;4.30;;;;;;;;;;5008734;28;20041;-59
2021/12/22 14:54:37;;;;;;;9.80;4.50;;;;;;;;;;5004528;28;20556;-59
2021/12/22 14:57:03;;;;;;;8.98;4.82;;;;;;;;;;5006980;28;20075;-57
2021/12/22 14:59:34;;;;;;;7.50;4.15;;;;;;;;;;4996004;28;20125;-59